Time;durP1;ratioP1;P1;durP2;ratioP2;P2;SDS_P1;SDS_P2;PMS_P1;PMS_P2;Temp;Humidity;BMP_temperature;BMP_pressure;BME280_temperature;BME280_humidity;BME280_pressure;Samples;Min_cycle;Max_cycle;Signal;HPM_P1;HPM_P2
2021/07/24 00:01:57;;;;;;;9.55;7.50;;;;;;;;;;5015833;28;20395;-85
2021/07/24 00:04:32;;;;;;;8.50;7.43;;;;;;;;;;5038208;28;20508;-89
2021/07/24 00:07:00;;;;;;;15.20;7.72;;;;;;;;;;5015385;28;20398;-72
2021/07/24 00:09:29;;;;;;;9.52;6.95;;;;;;;;;;5033751;28;20483;-78
2021/07/24 00:11:55;;;;;;;12.05;8.07;;;;;;;;;;5034512;28;20079;-87
2021/07/24 00:14:21;;;;;;;9.45;6.82;;;;;;;;;;5033711;28;20025;-87
2021/07/24 00:16:58;;;;;;;8.65;7.00;;;;;;;;;;5038592;28;20037;-85
2021/07/24 00:19:24;;;;;;;10.52;7.40;;;;;;;;;;4991333;28;20503;-71
2021/07/24 00:21:51;;;;;;;11.02;7.20;;;;;;;;;;4990954;28;20078;-78
2021/07/24 00:24:17;;;;;;;9.70;7.40;;;;;;;;;;4992016;28;20424;-86
2021/07/24 00:26:51;;;;;;;12.38;7.60;;;;;;;;;;4994390;28;20038;-89
2021/07/24 00:29:17;;;;;;;10.98;7.55;;;;;;;;;;4975408;28;20034;-89
2021/07/24 00:31:43;;;;;;;10.30;7.57;;;;;;;;;;4991803;28;20912;-87
2021/07/24 00:34:09;;;;;;;17.13;7.93;;;;;;;;;;4991726;28;20156;-72
2021/07/24 00:36:35;;;;;;;11.38;7.90;;;;;;;;;;4991274;28;20050;-73
2021/07/24 00:39:02;;;;;;;10.57;7.03;;;;;;;;;;5011171;28;20117;-88
2021/07/24 00:41:35;;;;;;;10.65;7.72;;;;;;;;;;5011218;28;20585;-72
2021/07/24 00:44:02;;;;;;;9.90;7.88;;;;;;;;;;5022702;28;20546;-74
2021/07/24 00:46:33;;;;;;;11.27;7.78;;;;;;;;;;5039990;28;20467;-90
2021/07/24 00:49:04;;;;;;;10.20;7.88;;;;;;;;;;5031614;28;20124;-77
2021/07/24 00:51:34;;;;;;;9.63;7.50;;;;;;;;;;5032394;28;20020;-74
2021/07/24 00:54:03;;;;;;;8.85;6.78;;;;;;;;;;5032358;28;20034;-80
2021/07/24 00:56:29;;;;;;;12.10;7.30;;;;;;;;;;5032239;28;20029;-85
2021/07/24 00:58:56;;;;;;;11.00;7.50;;;;;;;;;;5032294;28;20699;-89
2021/07/24 01:01:22;;;;;;;9.80;7.10;;;;;;;;;;5031097;28;20029;-87
2021/07/24 01:03:51;;;;;;;9.82;7.22;;;;;;;;;;5032025;28;20032;-73
2021/07/24 01:06:17;;;;;;;11.40;7.20;;;;;;;;;;5032185;28;20045;-73
2021/07/24 01:08:44;;;;;;;11.25;8.10;;;;;;;;;;5032925;28;20387;-70
2021/07/24 01:11:13;;;;;;;9.88;7.65;;;;;;;;;;5026735;28;20029;-80
2021/07/24 01:13:41;;;;;;;10.93;8.60;;;;;;;;;;5033385;28;20014;-87
2021/07/24 01:16:09;;;;;;;11.52;8.20;;;;;;;;;;5032476;28;20053;-78
2021/07/24 01:18:36;;;;;;;9.80;8.02;;;;;;;;;;5032685;28;20014;-84
2021/07/24 01:21:28;;;;;;;11.57;9.00;;;;;;;;;;5034578;28;20029;-72
2021/07/24 01:23:54;;;;;;;13.05;8.05;;;;;;;;;;5030240;28;20030;-86
2021/07/24 01:26:24;;;;;;;10.48;8.38;;;;;;;;;;5032474;28;20467;-85
2021/07/24 01:28:51;;;;;;;12.57;8.88;;;;;;;;;;5032139;28;20041;-70
2021/07/24 01:31:17;;;;;;;12.43;8.48;;;;;;;;;;5031959;28;20080;-69
2021/07/24 01:33:43;;;;;;;10.73;8.52;;;;;;;;;;5032678;28;20167;-84
2021/07/24 01:36:09;;;;;;;13.32;8.88;;;;;;;;;;5030753;28;20473;-85
2021/07/24 01:38:39;;;;;;;12.93;8.55;;;;;;;;;;5032086;28;20052;-78
2021/07/24 01:41:06;;;;;;;11.70;8.52;;;;;;;;;;5031995;28;20029;-71
2021/07/24 01:43:32;;;;;;;9.85;8.10;;;;;;;;;;5032213;28;20033;-76
2021/07/24 01:45:58;;;;;;;11.82;7.88;;;;;;;;;;5031826;28;20116;-86
2021/07/24 01:48:46;;;;;;;10.82;8.27;;;;;;;;;;5032216;28;20072;-82
2021/07/24 01:53:58;;;;;;;10.70;7.97;;;;;;;;;;5031118;28;20102;-69
2021/07/24 01:56:28;;;;;;;9.93;7.47;;;;;;;;;;5031492;28;20405;-69
2021/07/24 01:58:54;;;;;;;10.63;7.53;;;;;;;;;;5031657;28;20482;-72
2021/07/24 02:01:22;;;;;;;9.77;7.38;;;;;;;;;;5033363;28;20028;-69
2021/07/24 02:03:53;;;;;;;9.88;7.32;;;;;;;;;;5033738;28;20032;-84
2021/07/24 02:06:19;;;;;;;11.80;7.28;;;;;;;;;;5035066;28;20038;-69
2021/07/24 02:08:47;;;;;;;13.25;7.97;;;;;;;;;;5041531;28;20100;-70
2021/07/24 02:11:13;;;;;;;9.90;7.75;;;;;;;;;;5045827;28;20033;-78
2021/07/24 02:13:40;;;;;;;11.98;7.07;;;;;;;;;;5045802;28;20025;-68
2021/07/24 02:16:06;;;;;;;12.77;7.78;;;;;;;;;;5048265;28;20033;-73
2021/07/24 02:18:33;;;;;;;10.80;7.63;;;;;;;;;;5048961;28;20021;-74
2021/07/24 02:21:00;;;;;;;10.80;7.35;;;;;;;;;;5044231;28;20045;-69
2021/07/24 02:23:44;;;;;;;9.68;7.40;;;;;;;;;;5041608;28;20018;-73
2021/07/24 02:26:12;;;;;;;9.95;7.70;;;;;;;;;;5038153;28;20033;-84
2021/07/24 02:28:38;;;;;;;11.32;7.05;;;;;;;;;;5039522;28;20112;-80
2021/07/24 02:31:05;;;;;;;11.23;7.90;;;;;;;;;;5037584;28;20556;-82
2021/07/24 02:33:31;;;;;;;10.35;7.55;;;;;;;;;;5035741;28;20033;-71
2021/07/24 02:35:57;;;;;;;10.57;7.75;;;;;;;;;;5038118;28;20111;-75
2021/07/24 02:38:28;;;;;;;12.57;8.32;;;;;;;;;;5042829;28;20049;-84
2021/07/24 02:40:54;;;;;;;13.57;8.55;;;;;;;;;;5023249;28;20036;-75
2021/07/24 02:43:20;;;;;;;13.10;8.60;;;;;;;;;;5037025;28;20091;-82
2021/07/24 02:45:46;;;;;;;9.50;7.75;;;;;;;;;;5040030;28;20036;-77
2021/07/24 02:48:13;;;;;;;12.65;8.90;;;;;;;;;;5042328;28;20022;-71
2021/07/24 02:50:39;;;;;;;11.05;7.93;;;;;;;;;;5042160;28;20220;-82
2021/07/24 02:53:05;;;;;;;10.30;7.80;;;;;;;;;;5036561;28;20036;-77
2021/07/24 02:55:31;;;;;;;10.73;7.90;;;;;;;;;;5039916;28;20255;-68
2021/07/24 02:57:57;;;;;;;13.10;8.48;;;;;;;;;;5049392;28;20025;-68
2021/07/24 03:00:23;;;;;;;11.70;8.40;;;;;;;;;;5048636;28;20030;-74
2021/07/24 03:02:50;;;;;;;11.75;7.93;;;;;;;;;;5050268;28;20029;-74
2021/07/24 03:05:22;;;;;;;13.40;7.93;;;;;;;;;;5041924;28;20020;-68
2021/07/24 03:07:48;;;;;;;10.98;7.47;;;;;;;;;;5030593;28;20042;-68
2021/07/24 03:10:14;;;;;;;10.82;8.20;;;;;;;;;;5024472;28;20046;-74
2021/07/24 03:12:40;;;;;;;10.30;8.00;;;;;;;;;;5020677;28;20146;-68
2021/07/24 03:15:06;;;;;;;9.85;7.93;;;;;;;;;;5019606;28;20049;-76
2021/07/24 03:17:32;;;;;;;8.70;7.28;;;;;;;;;;5009579;28;20030;-81
2021/07/24 03:19:58;;;;;;;10.25;7.57;;;;;;;;;;5021040;28;20045;-68
2021/07/24 03:22:25;;;;;;;9.02;7.40;;;;;;;;;;5024299;28;20080;-68
2021/07/24 03:24:57;;;;;;;9.85;7.63;;;;;;;;;;5024351;28;20038;-86
2021/07/24 03:27:24;;;;;;;11.88;7.30;;;;;;;;;;5015162;28;20068;-77
2021/07/24 03:29:50;;;;;;;12.18;7.20;;;;;;;;;;5015826;28;20030;-75
2021/07/24 03:32:16;;;;;;;9.38;7.60;;;;;;;;;;5025755;28;20040;-68
2021/07/24 03:34:55;;;;;;;10.00;7.15;;;;;;;;;;5040168;28;20068;-84
2021/07/24 03:37:34;;;;;;;12.30;7.05;;;;;;;;;;5036384;28;20057;-68
2021/07/24 03:40:00;;;;;;;10.20;7.40;;;;;;;;;;5037401;28;20041;-85
2021/07/24 03:42:26;;;;;;;10.35;7.53;;;;;;;;;;5037726;28;20394;-79
2021/07/24 03:44:53;;;;;;;18.98;7.78;;;;;;;;;;5041650;28;20077;-83
2021/07/24 03:47:21;;;;;;;10.43;7.38;;;;;;;;;;5047830;28;20032;-84
2021/07/24 03:49:47;;;;;;;14.02;7.47;;;;;;;;;;5049136;28;20022;-73
2021/07/24 03:52:13;;;;;;;9.52;7.05;;;;;;;;;;5050986;28;20034;-83
2021/07/24 03:54:39;;;;;;;15.80;7.88;;;;;;;;;;5048494;28;20026;-75
2021/07/24 03:57:05;;;;;;;11.25;7.35;;;;;;;;;;5045442;28;20033;-82
2021/07/24 03:59:31;;;;;;;9.60;7.53;;;;;;;;;;5035787;28;20406;-81
2021/07/24 04:01:58;;;;;;;9.52;7.93;;;;;;;;;;5039212;28;20426;-84
2021/07/24 04:04:24;;;;;;;12.27;7.55;;;;;;;;;;5038999;28;20025;-85
2021/07/24 04:06:52;;;;;;;14.45;8.18;;;;;;;;;;5039050;28;20079;-84
2021/07/24 04:09:18;;;;;;;10.02;8.23;;;;;;;;;;5034484;28;20025;-85
2021/07/24 04:11:44;;;;;;;28.17;20.38;;;;;;;;;;5032588;28;20026;-84
2021/07/24 04:14:10;;;;;;;27.15;16.67;;;;;;;;;;5036069;28;20029;-85
2021/07/24 04:16:36;;;;;;;19.10;13.18;;;;;;;;;;5038793;28;20048;-71
2021/07/24 04:19:03;;;;;;;13.07;9.05;;;;;;;;;;5035063;28;20025;-87
2021/07/24 04:21:30;;;;;;;19.92;11.45;;;;;;;;;;5033169;28;20112;-85
2021/07/24 04:23:56;;;;;;;17.95;12.38;;;;;;;;;;5030619;28;20021;-85
2021/07/24 04:26:23;;;;;;;16.50;12.32;;;;;;;;;;5033326;28;20041;-81
2021/07/24 04:28:49;;;;;;;22.65;12.52;;;;;;;;;;5033270;28;20076;-84
2021/07/24 04:31:15;;;;;;;13.73;9.80;;;;;;;;;;5025745;28;20026;-86
2021/07/24 04:33:42;;;;;;;20.27;10.20;;;;;;;;;;5033326;28;20533;-76
2021/07/24 04:36:08;;;;;;;25.08;10.63;;;;;;;;;;5031786;28;20041;-84
2021/07/24 04:38:34;;;;;;;22.23;10.52;;;;;;;;;;5027255;28;20052;-70
2021/07/24 04:41:00;;;;;;;18.20;9.77;;;;;;;;;;5031721;28;20458;-81
2021/07/24 04:43:26;;;;;;;13.18;8.52;;;;;;;;;;5033208;28;20379;-84
2021/07/24 04:45:52;;;;;;;13.18;8.52;;;;;;;;;;5033039;28;20133;-84
2021/07/24 04:48:18;;;;;;;14.43;8.43;;;;;;;;;;5019302;28;20040;-72
2021/07/24 04:50:46;;;;;;;13.45;7.80;;;;;;;;;;5033516;28;20022;-87
2021/07/24 04:53:13;;;;;;;13.77;7.93;;;;;;;;;;5027544;28;20063;-83
2021/07/24 04:55:39;;;;;;;18.27;8.35;;;;;;;;;;5033123;28;20483;-87
2021/07/24 04:58:06;;;;;;;12.63;7.53;;;;;;;;;;5032488;28;20544;-87
2021/07/24 05:00:33;;;;;;;14.32;8.20;;;;;;;;;;5031720;28;20074;-79
2021/07/24 05:02:59;;;;;;;16.85;8.93;;;;;;;;;;5031544;28;20025;-88
2021/07/24 05:05:25;;;;;;;13.40;7.95;;;;;;;;;;5013138;28;20030;-82
2021/07/24 05:07:53;;;;;;;15.38;9.00;;;;;;;;;;5020199;28;20026;-88
2021/07/24 05:10:19;;;;;;;15.55;7.82;;;;;;;;;;5016924;28;20101;-82
2021/07/24 05:12:45;;;;;;;17.55;8.25;;;;;;;;;;5026190;28;20076;-73
2021/07/24 05:15:11;;;;;;;10.90;7.57;;;;;;;;;;5027910;28;20049;-70
2021/07/24 05:17:40;;;;;;;17.02;9.48;;;;;;;;;;5015523;28;20029;-70
2021/07/24 05:20:07;;;;;;;12.00;8.18;;;;;;;;;;5028275;28;20025;-86
2021/07/24 05:23:02;;;;;;;10.48;7.30;;;;;;;;;;5031338;28;20049;-89
2021/07/24 05:25:28;;;;;;;9.63;6.20;;;;;;;;;;5023955;28;20076;-90
2021/07/24 05:27:54;;;;;;;13.32;7.25;;;;;;;;;;5017937;28;20030;-85
2021/07/24 05:30:20;;;;;;;15.38;7.70;;;;;;;;;;5023903;28;20025;-89
2021/07/24 05:32:46;;;;;;;10.90;7.53;;;;;;;;;;5023511;28;20030;-84
2021/07/24 05:35:12;;;;;;;14.45;7.63;;;;;;;;;;5023238;28;20155;-77
2021/07/24 05:37:38;;;;;;;84.13;10.30;;;;;;;;;;5025103;28;20069;-92
2021/07/24 05:40:05;;;;;;;25.27;8.32;;;;;;;;;;5026500;28;20017;-70
2021/07/24 05:42:31;;;;;;;20.58;7.50;;;;;;;;;;5026118;28;20229;-84
2021/07/24 05:45:13;;;;;;;40.58;8.80;;;;;;;;;;5036990;28;20148;-70
2021/07/24 05:47:39;;;;;;;25.20;7.88;;;;;;;;;;4998550;28;20073;-80
2021/07/24 05:50:05;;;;;;;24.30;9.60;;;;;;;;;;5029234;28;20021;-86
2021/07/24 05:52:31;;;;;;;16.45;8.20;;;;;;;;;;5029502;28;20022;-70
2021/07/24 05:54:57;;;;;;;12.07;7.35;;;;;;;;;;5023890;28;20017;-88
2021/07/24 05:57:23;;;;;;;12.77;7.70;;;;;;;;;;5030425;28;20177;-80
2021/07/24 05:59:50;;;;;;;15.10;8.43;;;;;;;;;;5028516;28;20108;-88
2021/07/24 06:02:16;;;;;;;15.55;8.20;;;;;;;;;;5029009;28;20030;-88
2021/07/24 06:04:45;;;;;;;16.08;8.30;;;;;;;;;;5025838;28;20034;-92
2021/07/24 06:07:11;;;;;;;16.27;8.45;;;;;;;;;;5012431;28;20156;-75
2021/07/24 06:09:38;;;;;;;14.10;7.78;;;;;;;;;;5011510;28;20033;-88
2021/07/24 06:12:04;;;;;;;17.80;7.50;;;;;;;;;;5029252;28;20025;-79
2021/07/24 06:14:31;;;;;;;17.77;7.50;;;;;;;;;;5026887;28;20064;-81
2021/07/24 06:16:57;;;;;;;12.48;7.07;;;;;;;;;;5025737;28;20033;-78
2021/07/24 06:19:23;;;;;;;13.75;7.28;;;;;;;;;;5026813;28;20032;-73
2021/07/24 06:21:54;;;;;;;16.90;7.72;;;;;;;;;;5029157;28;20096;-74
2021/07/24 06:24:20;;;;;;;22.02;7.95;;;;;;;;;;5012115;28;20481;-74
2021/07/24 06:26:46;;;;;;;20.60;7.57;;;;;;;;;;5013044;28;20089;-84
2021/07/24 06:29:12;;;;;;;12.75;7.10;;;;;;;;;;5020782;28;20042;-76
2021/07/24 06:31:39;;;;;;;16.52;7.47;;;;;;;;;;5024229;28;20033;-76
2021/07/24 06:34:05;;;;;;;14.30;8.75;;;;;;;;;;5023343;28;20526;-86
2021/07/24 06:36:31;;;;;;;17.50;8.95;;;;;;;;;;5005638;28;20402;-82
2021/07/24 06:38:57;;;;;;;18.10;9.52;;;;;;;;;;5027294;28;20046;-74
2021/07/24 06:41:26;;;;;;;18.10;9.05;;;;;;;;;;5029061;28;20029;-75
2021/07/24 06:43:53;;;;;;;15.13;6.97;;;;;;;;;;5026340;28;20503;-80
2021/07/24 06:46:20;;;;;;;15.77;8.00;;;;;;;;;;5028483;28;20029;-72
2021/07/24 06:48:46;;;;;;;12.07;7.00;;;;;;;;;;5009966;28;20395;-77
2021/07/24 06:51:12;;;;;;;12.40;7.40;;;;;;;;;;5020050;28;20146;-76
2021/07/24 06:53:38;;;;;;;15.25;7.82;;;;;;;;;;5030302;28;20026;-85
2021/07/24 06:56:04;;;;;;;18.73;7.20;;;;;;;;;;5025352;28;20041;-75
2021/07/24 06:58:31;;;;;;;15.02;8.05;;;;;;;;;;5017411;28;20387;-83
2021/07/24 07:00:58;;;;;;;19.67;8.30;;;;;;;;;;5015236;28;20029;-83
2021/07/24 07:03:24;;;;;;;13.65;8.27;;;;;;;;;;5013287;28;20471;-81
2021/07/24 07:05:50;;;;;;;12.77;7.88;;;;;;;;;;5033299;28;20038;-74
2021/07/24 07:08:16;;;;;;;10.48;7.30;;;;;;;;;;5027219;28;20073;-74
2021/07/24 07:10:42;;;;;;;14.90;7.88;;;;;;;;;;5016004;28;20497;-77
2021/07/24 07:13:09;;;;;;;12.68;7.15;;;;;;;;;;5013178;28;20037;-76
2021/07/24 07:15:35;;;;;;;17.05;7.75;;;;;;;;;;5028016;28;20032;-76
2021/07/24 07:18:01;;;;;;;17.83;7.05;;;;;;;;;;5026440;28;20475;-81
2021/07/24 07:20:27;;;;;;;16.48;7.10;;;;;;;;;;5032151;28;20048;-79
2021/07/24 07:22:53;;;;;;;13.73;6.93;;;;;;;;;;5031404;28;20080;-80
2021/07/24 07:25:19;;;;;;;20.17;8.38;;;;;;;;;;5033651;28;20025;-76
2021/07/24 07:27:45;;;;;;;12.13;7.25;;;;;;;;;;5030226;28;20033;-76
2021/07/24 07:30:14;;;;;;;13.43;7.70;;;;;;;;;;5033018;28;20025;-79
2021/07/24 07:32:40;;;;;;;11.65;7.15;;;;;;;;;;5032964;28;20025;-77
2021/07/24 07:35:07;;;;;;;14.27;7.72;;;;;;;;;;5034049;28;20025;-70
2021/07/24 07:37:33;;;;;;;11.23;7.38;;;;;;;;;;5027026;28;20053;-79
2021/07/24 07:39:59;;;;;;;18.75;6.90;;;;;;;;;;5029220;28;20053;-75
2021/07/24 07:42:25;;;;;;;9.15;6.53;;;;;;;;;;5025051;28;20033;-80
2021/07/24 07:45:09;;;;;;;19.60;7.82;;;;;;;;;;5031502;28;20026;-76
2021/07/24 07:47:38;;;;;;;8.43;5.60;;;;;;;;;;5013500;28;20053;-67
2021/07/24 07:50:05;;;;;;;14.52;6.20;;;;;;;;;;5024734;28;20449;-73
2021/07/24 07:52:31;;;;;;;19.23;6.10;;;;;;;;;;5030319;28;20025;-78
2021/07/24 07:54:58;;;;;;;10.73;5.97;;;;;;;;;;5028636;28;20022;-80
2021/07/24 07:57:26;;;;;;;15.80;7.25;;;;;;;;;;5023548;28;20087;-79
2021/07/24 07:59:53;;;;;;;16.23;6.75;;;;;;;;;;5030469;28;20021;-79
2021/07/24 08:02:19;;;;;;;20.40;7.63;;;;;;;;;;5030766;28;20029;-82
2021/07/24 08:04:45;;;;;;;10.20;6.43;;;;;;;;;;5027366;28;20099;-81
2021/07/24 08:07:11;;;;;;;10.38;6.50;;;;;;;;;;5025082;28;20037;-81
2021/07/24 08:09:37;;;;;;;14.73;7.00;;;;;;;;;;5030494;28;20521;-84
2021/07/24 08:12:03;;;;;;;13.07;6.78;;;;;;;;;;5024048;28;20025;-64
2021/07/24 08:14:29;;;;;;;12.38;6.60;;;;;;;;;;5031449;28;20064;-76
2021/07/24 08:16:56;;;;;;;9.02;6.22;;;;;;;;;;5028812;28;20491;-84
2021/07/24 08:19:22;;;;;;;11.90;6.40;;;;;;;;;;5022159;28;20033;-79
2021/07/24 08:21:50;;;;;;;17.77;7.60;;;;;;;;;;5024338;28;20032;-81
2021/07/24 08:24:16;;;;;;;8.25;6.40;;;;;;;;;;5026796;28;20144;-77
2021/07/24 08:26:42;;;;;;;9.27;5.95;;;;;;;;;;5027296;28;20028;-78
2021/07/24 08:29:08;;;;;;;12.60;6.85;;;;;;;;;;5027028;28;20054;-79
2021/07/24 08:31:34;;;;;;;8.60;6.40;;;;;;;;;;5028532;28;20112;-84
2021/07/24 08:34:00;;;;;;;12.50;6.65;;;;;;;;;;5030392;28;20093;-71
2021/07/24 08:36:27;;;;;;;11.35;6.20;;;;;;;;;;5032396;28;20033;-68
2021/07/24 08:38:53;;;;;;;9.15;6.35;;;;;;;;;;5030107;28;20068;-85
2021/07/24 08:41:19;;;;;;;10.43;6.60;;;;;;;;;;5027658;28;20033;-85
2021/07/24 08:43:45;;;;;;;10.18;6.70;;;;;;;;;;5029615;28;20057;-72
2021/07/24 08:46:19;;;;;;;11.50;6.45;;;;;;;;;;5031065;28;20492;-87
2021/07/24 08:48:45;;;;;;;9.13;6.30;;;;;;;;;;5028306;28;20026;-87
2021/07/24 08:51:31;;;;;;;10.43;6.72;;;;;;;;;;5030706;28;20025;-88
2021/07/24 08:54:01;;;;;;;9.23;6.78;;;;;;;;;;5025890;28;20044;-85
2021/07/24 08:56:29;;;;;;;10.27;6.38;;;;;;;;;;5028505;28;20030;-82
2021/07/24 08:58:59;;;;;;;10.75;6.47;;;;;;;;;;5017201;28;20025;-74
2021/07/24 09:01:25;;;;;;;14.98;6.35;;;;;;;;;;5022386;28;20037;-72
2021/07/24 09:03:53;;;;;;;7.63;5.70;;;;;;;;;;5027388;28;20113;-86
2021/07/24 09:06:23;;;;;;;13.85;6.80;;;;;;;;;;5024837;28;20041;-68
2021/07/24 09:08:53;;;;;;;10.23;5.80;;;;;;;;;;5021863;28;20414;-81
2021/07/24 09:11:20;;;;;;;10.07;6.25;;;;;;;;;;5028573;28;20026;-74
2021/07/24 09:13:46;;;;;;;7.25;6.20;;;;;;;;;;5022611;28;20041;-83
2021/07/24 09:16:20;;;;;;;9.65;6.63;;;;;;;;;;5029789;28;20041;-70
2021/07/24 09:18:49;;;;;;;13.20;6.60;;;;;;;;;;5025712;28;20022;-83
2021/07/24 09:21:15;;;;;;;8.65;5.90;;;;;;;;;;5025769;28;20399;-83
2021/07/24 09:23:47;;;;;;;13.77;7.03;;;;;;;;;;5023621;28;20030;-79
2021/07/24 09:26:29;;;;;;;10.82;6.20;;;;;;;;;;5007545;28;20021;-76
2021/07/24 09:29:09;;;;;;;13.05;6.53;;;;;;;;;;5008155;28;20018;-77
2021/07/24 09:31:38;;;;;;;9.38;6.03;;;;;;;;;;5027924;28;20034;-83
2021/07/24 09:34:05;;;;;;;9.23;5.85;;;;;;;;;;5009902;28;20028;-77
2021/07/24 09:36:31;;;;;;;8.52;6.30;;;;;;;;;;5030096;28;20033;-77
2021/07/24 09:39:12;;;;;;;14.48;6.18;;;;;;;;;;5023544;28;20109;-73
2021/07/24 09:41:39;;;;;;;10.15;6.57;;;;;;;;;;5029617;28;20384;-74
2021/07/24 09:44:05;;;;;;;8.00;6.25;;;;;;;;;;5028285;28;20494;-83
2021/07/24 09:46:32;;;;;;;9.95;6.30;;;;;;;;;;5028179;28;20064;-85
2021/07/24 09:49:13;;;;;;;10.07;6.05;;;;;;;;;;5025411;28;20553;-78
2021/07/24 09:51:40;;;;;;;7.57;6.03;;;;;;;;;;5028118;28;20387;-77
2021/07/24 09:54:07;;;;;;;8.38;6.57;;;;;;;;;;5023028;28;20026;-82
2021/07/24 09:56:39;;;;;;;9.30;6.15;;;;;;;;;;5027552;28;20036;-82
2021/07/24 09:59:16;;;;;;;9.48;6.00;;;;;;;;;;5023910;28;20099;-73
2021/07/24 10:01:43;;;;;;;10.25;6.15;;;;;;;;;;5027038;28;20042;-76
2021/07/24 10:04:11;;;;;;;9.45;6.60;;;;;;;;;;5028428;28;20383;-76
2021/07/24 10:06:38;;;;;;;9.55;6.15;;;;;;;;;;5020558;28;20025;-74
2021/07/24 10:09:04;;;;;;;10.73;6.63;;;;;;;;;;5021811;28;20025;-76
2021/07/24 10:11:30;;;;;;;10.75;6.40;;;;;;;;;;5025808;28;20064;-76
2021/07/24 10:13:56;;;;;;;11.15;6.90;;;;;;;;;;5022664;28;20041;-82
2021/07/24 10:16:24;;;;;;;8.43;6.05;;;;;;;;;;5022150;28;20061;-89
2021/07/24 10:18:50;;;;;;;8.10;5.90;;;;;;;;;;5021902;28;20442;-77
2021/07/24 10:21:18;;;;;;;9.57;6.35;;;;;;;;;;5027408;28;20097;-82
2021/07/24 10:23:46;;;;;;;23.90;6.90;;;;;;;;;;5021342;28;20076;-83
2021/07/24 10:26:12;;;;;;;8.13;5.70;;;;;;;;;;5020629;28;20066;-79
2021/07/24 10:28:53;;;;;;;12.35;6.75;;;;;;;;;;5031621;28;20040;-80
2021/07/24 10:31:42;;;;;;;15.30;7.00;;;;;;;;;;5029878;28;20026;-79
2021/07/24 10:34:09;;;;;;;10.57;6.70;;;;;;;;;;5029336;28;20084;-74
2021/07/24 10:36:36;;;;;;;16.35;7.00;;;;;;;;;;5031928;28;20029;-78
2021/07/24 10:39:04;;;;;;;11.18;6.63;;;;;;;;;;5029729;28;20096;-79
2021/07/24 10:41:30;;;;;;;12.52;6.43;;;;;;;;;;5012030;28;20045;-76
2021/07/24 10:44:06;;;;;;;11.13;6.82;;;;;;;;;;5034345;28;20034;-85
2021/07/24 10:46:56;;;;;;;10.65;6.60;;;;;;;;;;5010583;28;20475;-83
2021/07/24 10:49:34;;;;;;;13.77;6.82;;;;;;;;;;5020370;28;20071;-77
2021/07/24 10:52:01;;;;;;;9.20;6.25;;;;;;;;;;5030064;28;20034;-85
2021/07/24 10:54:30;;;;;;;8.63;6.53;;;;;;;;;;5021023;28;20183;-81
2021/07/24 10:56:56;;;;;;;11.48;6.93;;;;;;;;;;5017154;28;20103;-83
2021/07/24 10:59:26;;;;;;;7.65;6.13;;;;;;;;;;5026605;28;20476;-75
2021/07/24 11:01:53;;;;;;;10.00;6.53;;;;;;;;;;5032907;28;20057;-80
2021/07/24 11:04:38;;;;;;;10.85;6.50;;;;;;;;;;5032050;28;20097;-72
2021/07/24 11:07:13;;;;;;;8.73;6.82;;;;;;;;;;5030280;28;20049;-82
2021/07/24 11:09:43;;;;;;;11.32;7.07;;;;;;;;;;5013088;28;20025;-75
2021/07/24 11:12:16;;;;;;;10.98;6.90;;;;;;;;;;5028598;28;20097;-74
2021/07/24 11:14:42;;;;;;;;;;;;;;;;;;5016821;28;20042;-81
2021/07/24 11:17:16;;;;;;;11.10;6.85;;;;;;;;;;5026022;28;19963;-87
2021/07/24 11:19:43;;;;;;;;;;;;;;;;;;5010750;28;21326;-73
2021/07/24 11:22:16;;;;;;;13.30;7.03;;;;;;;;;;5025867;28;20282;-82
2021/07/24 11:24:42;;;;;;;;;;;;;;;;;;5030753;28;20021;-84
2021/07/24 11:27:08;;;;;;;11.43;7.30;;;;;;;;;;5031379;28;19919;-81
2021/07/24 11:29:34;;;;;;;10.77;6.72;;;;;;;;;;5028906;28;20025;-75
2021/07/24 11:32:02;;;;;;;11.20;6.93;;;;;;;;;;5031593;28;20026;-82
2021/07/24 11:34:32;;;;;;;9.77;8.05;;;;;;;;;;5033126;28;20036;-84
2021/07/24 11:36:59;;;;;;;11.05;7.10;;;;;;;;;;5029716;28;20032;-75
2021/07/24 11:39:26;;;;;;;12.70;7.30;;;;;;;;;;5023666;28;20034;-78
2021/07/24 11:41:53;;;;;;;10.43;7.00;;;;;;;;;;5030302;28;20491;-83
2021/07/24 11:44:25;;;;;;;12.85;6.97;;;;;;;;;;5031344;28;20049;-82
2021/07/24 11:46:55;;;;;;;16.67;7.27;;;;;;;;;;5025916;28;20372;-77
2021/07/24 11:49:21;;;;;;;12.30;6.72;;;;;;;;;;5019795;28;20017;-83
2021/07/24 11:51:47;;;;;;;14.18;6.97;;;;;;;;;;5022585;28;20084;-83
2021/07/24 11:54:13;;;;;;;13.48;7.50;;;;;;;;;;5030945;28;20025;-83
2021/07/24 11:56:41;;;;;;;11.30;7.80;;;;;;;;;;5022040;28;20091;-82
2021/07/24 11:59:07;;;;;;;9.77;7.00;;;;;;;;;;5026574;28;20029;-81
2021/07/24 12:01:33;;;;;;;12.40;7.78;;;;;;;;;;5027576;28;20129;-81
2021/07/24 12:04:03;;;;;;;9.65;7.40;;;;;;;;;;5030091;28;20018;-83
2021/07/24 12:06:29;;;;;;;14.27;7.90;;;;;;;;;;5027572;28;20490;-82
2021/07/24 12:08:55;;;;;;;15.75;7.20;;;;;;;;;;5027883;28;20083;-83
2021/07/24 12:11:22;;;;;;;9.07;6.40;;;;;;;;;;5030546;28;20033;-73
2021/07/24 12:13:48;;;;;;;7.88;6.68;;;;;;;;;;5015165;28;20029;-82
2021/07/24 12:16:17;;;;;;;13.00;7.13;;;;;;;;;;5033217;28;20025;-80
2021/07/24 12:18:44;;;;;;;10.57;7.05;;;;;;;;;;5033084;28;20052;-80
2021/07/24 12:21:17;;;;;;;9.13;6.82;;;;;;;;;;5032701;28;20022;-76
2021/07/24 12:23:55;;;;;;;10.25;7.25;;;;;;;;;;5031123;28;20021;-83
2021/07/24 12:26:23;;;;;;;10.30;6.50;;;;;;;;;;5022252;28;20121;-77
2021/07/24 12:29:06;;;;;;;9.13;7.03;;;;;;;;;;5033039;28;20089;-83
2021/07/24 12:31:43;;;;;;;14.82;7.43;;;;;;;;;;4998879;28;20029;-81
2021/07/24 12:34:09;;;;;;;;;;;;;;;;;;5015553;28;20097;-76
2021/07/24 12:36:48;;;;;;;10.43;7.50;;;;;;;;;;5022997;28;20009;-83
2021/07/24 12:39:18;;;;;;;10.20;6.85;;;;;;;;;;5028918;28;20042;-68
2021/07/24 12:41:44;;;;;;;8.07;6.82;;;;;;;;;;5025374;28;20033;-70
2021/07/24 12:44:10;;;;;;;10.93;6.80;;;;;;;;;;5028630;28;20053;-82
2021/07/24 12:46:39;;;;;;;7.97;6.55;;;;;;;;;;5025131;28;20026;-81
2021/07/24 12:49:06;;;;;;;7.60;6.35;;;;;;;;;;5040185;28;20026;-75
2021/07/24 12:51:45;;;;;;;9.88;6.55;;;;;;;;;;5014680;28;20033;-77
2021/07/24 12:54:11;;;;;;;9.60;6.40;;;;;;;;;;5014835;28;20071;-69
2021/07/24 12:56:42;;;;;;;8.68;6.70;;;;;;;;;;5030440;28;20037;-83
2021/07/24 12:59:08;;;;;;;8.15;6.78;;;;;;;;;;5017821;28;20037;-83
2021/07/24 13:01:34;;;;;;;8.13;6.82;;;;;;;;;;5029058;28;20014;-81
2021/07/24 13:04:12;;;;;;;8.48;7.03;;;;;;;;;;5016850;28;20026;-79
2021/07/24 13:06:43;;;;;;;11.75;6.38;;;;;;;;;;5006554;28;20013;-82
2021/07/24 13:09:10;;;;;;;10.50;6.97;;;;;;;;;;5021993;28;20501;-69
2021/07/24 13:11:36;;;;;;;8.82;6.75;;;;;;;;;;5021564;28;20022;-83
2021/07/24 13:14:10;;;;;;;7.93;6.30;;;;;;;;;;5021390;28;20018;-81
2021/07/24 13:16:43;;;;;;;10.02;7.05;;;;;;;;;;5003732;28;20048;-83
2021/07/24 13:19:09;;;;;;;8.30;6.35;;;;;;;;;;5018854;28;20060;-74
2021/07/24 13:21:35;;;;;;;12.00;7.07;;;;;;;;;;5024951;28;20026;-82
2021/07/24 13:24:03;;;;;;;12.30;6.75;;;;;;;;;;5032254;28;20033;-83
2021/07/24 13:29:14;;;;;;;9.25;6.75;;;;;;;;;;5026426;28;20105;-83
2021/07/24 13:31:40;;;;;;;10.50;7.03;;;;;;;;;;5025314;28;20021;-83
2021/07/24 13:34:08;;;;;;;9.88;6.85;;;;;;;;;;5022534;28;20022;-82
2021/07/24 13:36:34;;;;;;;9.13;6.65;;;;;;;;;;5027524;28;20026;-82
2021/07/24 13:39:00;;;;;;;14.65;6.50;;;;;;;;;;5025086;28;20125;-83
2021/07/24 13:41:26;;;;;;;9.55;6.72;;;;;;;;;;5029520;28;20032;-78
2021/07/24 13:43:57;;;;;;;11.38;6.85;;;;;;;;;;5029600;28;20065;-83
2021/07/24 13:46:24;;;;;;;10.30;7.25;;;;;;;;;;5006091;28;20027;-76
2021/07/24 13:48:50;;;;;;;9.50;6.60;;;;;;;;;;5012811;28;20030;-77
2021/07/24 13:51:24;;;;;;;10.50;7.20;;;;;;;;;;5017375;28;20021;-81
2021/07/24 13:53:50;;;;;;;11.55;6.47;;;;;;;;;;5017353;28;20099;-84
2021/07/24 13:56:24;;;;;;;11.52;7.20;;;;;;;;;;5017059;28;20125;-80
2021/07/24 13:58:51;;;;;;;11.60;6.90;;;;;;;;;;5009924;28;20394;-80
2021/07/24 14:01:28;;;;;;;9.18;6.75;;;;;;;;;;5025141;28;20075;-81
2021/07/24 14:03:55;;;;;;;8.63;6.47;;;;;;;;;;5011119;28;20034;-70
2021/07/24 14:06:21;;;;;;;9.50;6.97;;;;;;;;;;5025824;28;20386;-81
2021/07/24 14:08:47;;;;;;;9.25;7.15;;;;;;;;;;5020307;28;20030;-83
2021/07/24 14:11:15;;;;;;;11.80;7.45;;;;;;;;;;5006676;28;20113;-67
2021/07/24 14:13:41;;;;;;;23.83;8.75;;;;;;;;;;5022175;28;20053;-84
2021/07/24 14:16:13;;;;;;;13.15;8.65;;;;;;;;;;5031952;28;20033;-83
2021/07/24 14:18:39;;;;;;;19.80;8.18;;;;;;;;;;5028602;28;20068;-79
2021/07/24 14:21:05;;;;;;;8.38;6.63;;;;;;;;;;5024784;28;20483;-81
2021/07/24 14:23:31;;;;;;;12.23;7.05;;;;;;;;;;5033199;28;20475;-67
2021/07/24 14:26:03;;;;;;;8.65;6.95;;;;;;;;;;5033546;28;20095;-83
2021/07/24 14:28:29;;;;;;;10.48;6.75;;;;;;;;;;5028456;28;20663;-78
2021/07/24 14:30:55;;;;;;;10.55;6.78;;;;;;;;;;5025216;28;20022;-73
2021/07/24 14:33:21;;;;;;;15.32;7.25;;;;;;;;;;5030738;28;20022;-74
2021/07/24 14:35:47;;;;;;;10.00;6.80;;;;;;;;;;5027427;28;20030;-83
2021/07/24 14:38:13;;;;;;;7.68;6.88;;;;;;;;;;5031685;28;20446;-69
2021/07/24 14:40:39;;;;;;;12.75;6.72;;;;;;;;;;5031587;28;20021;-74
2021/07/24 14:43:06;;;;;;;8.68;6.90;;;;;;;;;;5032427;28;20022;-72
2021/07/24 14:45:32;;;;;;;15.23;7.75;;;;;;;;;;5023976;28;20434;-68